Startpagina
METAR-TAF:

METAR-TAF

Vliegvelden :

Bozeman, Montana, Verenigde Staten

breedte: 45-47-17N, lengte: 111-09-39W, hoogte: 1364 m

Actueel weer

Dit bericht is 22 minuten geleden gemaakt, om 16:56 UTC
Wind 3 kt uit het zuidzuidoosten
Temperatuur 12°C
Vochtigheid 35%
Druk 1026 hPa
Zicht: 16.1 km
Onbewolkt

METAR: KBZN 181656Z 16003KT 10SM CLR 12/M03 A3029 RMK AO2 SLP258 T01171028

Tijdstip: 11:18 (17:18 UTC)

Verwachting

Dit bericht is 5 uur en het 33 minuten geleden gemaakt, om 11:45 UTC
Verwachting geldig van 18 om 12 UTC tot 19 om 18 UTC
Wind 5 kt uit het zuidoosten
Zicht: 10 km
Onbewolkt
Van 18 om 1800 UTC
Wind 7 kt uit het noordnoordwesten
Zicht: 10 km
Verspreide wolken op 12000 ft
Van 19 om 0400 UTC
Wind 5 kt uit het zuidoosten
Zicht: 10 km
Onbewolkt
Van 19 om 1500 UTC
Wind 9 kt uit het noordnoordwesten
Zicht: 10 km
Verspreide wolken op 6000 ft
Gebroken wolken op 10000 ft

TAF: KBZN 181145Z 1812/1918 14005KT P6SM SKC FM181800 33007KT P6SM SCT120 FM190400 14005KT P6SM SKC FM191500 33009KT P6SM SCT060 BKN100

Waarnemingen en weersverwachtingen van meer dan 4000 vliegvelden (METAR en TAF).

De beschikbare stations zijn de gele en rode punten op de kaart.

Ga met uw muis naar het station om de naam te zien.

Klik dan om waarnemingen en weersverwachtingen te zien.

kaart wijzigen: klik op de groene knoppen met een zwart kruis om in te zoomen, op de groene knop met een streepje om uit te zoomen of op de groene pijlen voor aangrenzende kaarten.


METAR-TAF: